createdAt,value
2023-03-19T00:00:53.830Z,55.04
2023-03-19T00:03:58.055Z,54.71
2023-03-19T00:07:02.377Z,55.05
2023-03-19T00:10:07.012Z,54.30
2023-03-19T00:13:12.870Z,54.82
2023-03-19T00:16:16.999Z,55.52
2023-03-19T00:19:21.082Z,54.69
2023-03-19T00:22:25.015Z,54.69
2023-03-19T00:25:29.211Z,54.60
2023-03-19T00:28:35.732Z,55.33
2023-03-19T00:31:40.259Z,55.30
2023-03-19T00:34:44.859Z,55.34
2023-03-19T00:37:48.851Z,55.77
2023-03-19T00:40:52.899Z,55.84
2023-03-19T00:43:59.686Z,55.67
2023-03-19T00:47:07.664Z,56.62
2023-03-19T00:50:12.728Z,56.10
2023-03-19T00:53:16.772Z,55.83
2023-03-19T00:56:21.624Z,55.74
2023-03-19T00:59:27.428Z,54.77
2023-03-19T01:02:32.516Z,54.72
2023-03-19T01:08:40.962Z,54.07
2023-03-19T01:11:45.065Z,54.04
2023-03-19T01:14:50.456Z,54.37
2023-03-19T01:17:54.340Z,54.39
2023-03-19T01:20:58.510Z,54.63
2023-03-19T01:24:03.709Z,54.32
2023-03-19T01:27:07.803Z,54.38
2023-03-19T01:30:15.727Z,54.35
2023-03-19T01:33:55.056Z,54.78
2023-03-19T01:37:17.470Z,55.22
2023-03-19T01:40:22.156Z,54.74
2023-03-19T01:43:27.402Z,54.81
2023-03-19T01:46:53.132Z,55.20
2023-03-19T01:50:25.544Z,55.14
2023-03-19T01:53:46.866Z,55.39
2023-03-19T01:56:59.968Z,55.18
2023-03-19T02:00:27.980Z,54.70
2023-03-19T02:03:34.960Z,55.01
2023-03-19T02:06:55.370Z,54.34
2023-03-19T02:10:01.485Z,54.21
2023-03-19T02:13:06.950Z,54.52
2023-03-19T02:16:11.326Z,54.79
2023-03-19T02:19:24.188Z,54.80
2023-03-19T02:22:31.269Z,54.32
2023-03-19T02:25:44.996Z,53.98
2023-03-19T02:28:54.250Z,53.93
2023-03-19T02:32:05.189Z,53.94
2023-03-19T02:35:11.188Z,53.97
2023-03-19T02:38:16.671Z,53.90
2023-03-19T02:41:21.749Z,53.42
2023-03-19T02:44:27.415Z,53.54
2023-03-19T02:47:31.442Z,52.43
2023-03-19T02:50:35.777Z,52.90
2023-03-19T02:53:39.786Z,51.96
2023-03-19T02:56:43.812Z,52.06
2023-03-19T02:59:49.257Z,51.90
2023-03-19T03:02:53.321Z,52.04
2023-03-19T03:05:57.265Z,52.34
2023-03-19T03:09:01.403Z,52.18
2023-03-19T03:12:06.449Z,52.54
2023-03-19T03:15:12.219Z,52.21
2023-03-19T03:18:16.146Z,51.99
2023-03-19T03:21:21.756Z,52.26
2023-03-19T03:24:25.778Z,52.01
2023-03-19T03:27:29.912Z,52.79
2023-03-19T03:30:35.692Z,53.14
2023-03-19T03:33:39.783Z,52.91
2023-03-19T03:36:43.742Z,53.18
2023-03-19T03:39:48.648Z,53.42
2023-03-19T03:42:52.531Z,53.64
2023-03-19T03:45:58.689Z,53.07
2023-03-19T03:49:02.942Z,53.05
2023-03-19T03:52:08.821Z,53.29
2023-03-19T03:55:12.962Z,52.86
2023-03-19T03:58:17.171Z,52.57
2023-03-19T04:01:22.952Z,52.46
2023-03-19T04:04:31.745Z,52.49
2023-03-19T04:07:36.208Z,52.35
2023-03-19T04:10:42.620Z,53.02
2023-03-19T04:13:47.230Z,53.60
2023-03-19T04:16:52.869Z,53.12
2023-03-19T04:19:56.861Z,52.95
2023-03-19T04:23:00.788Z,52.88
2023-03-19T04:26:07.342Z,52.71
2023-03-19T04:29:12.065Z,53.00
2023-03-19T04:32:17.538Z,52.55
2023-03-19T04:35:21.908Z,52.45
2023-03-19T04:38:28.021Z,53.13
2023-03-19T04:41:32.234Z,53.00
2023-03-19T04:44:55.757Z,52.89
2023-03-19T04:48:02.100Z,52.51
2023-03-19T04:51:09.580Z,53.02
2023-03-19T04:54:15.125Z,52.75
2023-03-19T04:57:20.438Z,53.57
2023-03-19T05:00:28.520Z,53.26
2023-03-19T05:03:34.123Z,53.02
2023-03-19T05:06:38.533Z,53.13
2023-03-19T05:09:44.138Z,52.79
2023-03-19T05:12:48.412Z,52.81
2023-03-19T05:15:55.715Z,53.20
2023-03-19T05:19:01.755Z,52.81
2023-03-19T05:22:07.012Z,52.95
2023-03-19T05:25:11.829Z,52.75
2023-03-19T05:28:17.607Z,52.50
2023-03-19T05:31:22.136Z,52.22
2023-03-19T05:34:31.276Z,52.48
2023-03-19T05:37:35.529Z,52.27
2023-03-19T05:40:42.238Z,52.06
2023-03-19T05:43:58.945Z,51.40
2023-03-19T05:47:25.985Z,51.62
2023-03-19T05:50:34.740Z,51.61
2023-03-19T05:53:48.882Z,50.46
2023-03-19T05:57:11.070Z,50.19
2023-03-19T06:00:22.507Z,49.94
2023-03-19T06:03:27.495Z,49.87
2023-03-19T06:06:35.120Z,48.17
2023-03-19T06:09:39.478Z,48.83
2023-03-19T06:12:43.721Z,47.56
2023-03-19T06:16:10.376Z,47.40
2023-03-19T06:19:18.079Z,47.19
2023-03-19T06:22:23.725Z,45.44
2023-03-19T06:25:27.875Z,46.02
2023-03-19T06:28:32.040Z,44.54
2023-03-19T06:31:36.338Z,43.98
2023-03-19T06:34:48.396Z,43.34
2023-03-19T06:37:54.225Z,44.19
2023-03-19T06:40:58.320Z,44.30
2023-03-19T06:44:02.652Z,43.48
2023-03-19T06:47:07.466Z,43.27
2023-03-19T06:50:13.821Z,43.24
2023-03-19T06:53:19.502Z,42.90
2023-03-19T06:56:23.602Z,42.71
2023-03-19T06:59:27.934Z,42.38
2023-03-19T07:02:32.092Z,42.53
2023-03-19T07:05:36.316Z,42.19
2023-03-19T07:08:46.585Z,42.10
2023-03-19T07:11:50.730Z,41.49
2023-03-19T07:14:54.830Z,41.23
2023-03-19T07:17:58.976Z,40.18
2023-03-19T07:21:03.091Z,39.77
2023-03-19T07:24:09.031Z,39.50
2023-03-19T07:27:13.382Z,39.55
2023-03-19T07:30:17.860Z,39.25
2023-03-19T07:33:22.348Z,39.62
2023-03-19T07:36:26.621Z,39.80
2023-03-19T07:39:32.418Z,39.58
2023-03-19T07:42:36.931Z,39.97
2023-03-19T07:45:41.440Z,39.37
2023-03-19T07:48:45.456Z,39.38
2023-03-19T07:51:49.577Z,38.94
2023-03-19T07:54:55.272Z,38.28
2023-03-19T07:57:59.464Z,37.27
2023-03-19T08:01:03.796Z,37.53
2023-03-19T08:04:08.504Z,36.94
2023-03-19T08:07:13.223Z,35.93
2023-03-19T08:10:19.019Z,35.17
2023-03-19T08:13:23.113Z,36.44
2023-03-19T08:16:27.641Z,36.36
2023-03-19T08:19:32.261Z,34.96
2023-03-19T08:22:37.496Z,34.80
2023-03-19T08:25:43.630Z,34.25
2023-03-19T08:28:47.728Z,33.14
2023-03-19T08:31:51.812Z,33.69
2023-03-19T08:34:56.131Z,33.87
2023-03-19T08:38:00.265Z,33.26
2023-03-19T08:41:06.643Z,33.08
2023-03-19T08:44:10.752Z,32.09
2023-03-19T08:47:15.023Z,31.91
2023-03-19T08:50:20.332Z,31.81
2023-03-19T08:53:25.153Z,31.34
2023-03-19T08:56:30.626Z,30.96
2023-03-19T08:59:34.756Z,31.43
2023-03-19T09:02:39.113Z,31.09
2023-03-19T09:05:43.236Z,31.00
2023-03-19T09:08:47.347Z,30.59
2023-03-19T09:11:53.042Z,30.35
2023-03-19T09:14:57.137Z,30.12
2023-03-19T09:18:01.434Z,29.78
2023-03-19T09:21:06.393Z,30.05
2023-03-19T09:24:10.963Z,29.85
2023-03-19T09:27:16.406Z,29.24
2023-03-19T09:30:20.661Z,29.49
2023-03-19T09:33:24.830Z,30.35
2023-03-19T09:36:29.131Z,29.88
2023-03-19T09:39:33.767Z,30.17
2023-03-19T09:42:57.705Z,30.96
2023-03-19T09:46:05.861Z,30.03
2023-03-19T09:49:22.333Z,30.09
2023-03-19T09:52:43.358Z,31.59
2023-03-19T09:55:51.883Z,30.72
2023-03-19T09:58:57.465Z,30.29
2023-03-19T10:02:26.456Z,30.37
2023-03-19T10:05:43.979Z,30.50
2023-03-19T10:09:00.000Z,30.64
2023-03-19T10:12:19.467Z,30.80
2023-03-19T10:15:30.091Z,31.33
2023-03-19T10:18:39.618Z,34.00
2023-03-19T10:21:48.868Z,33.53
2023-03-19T10:24:55.972Z,33.36
2023-03-19T10:28:03.600Z,32.60
2023-03-19T10:31:26.373Z,31.81
2023-03-19T10:34:35.920Z,33.27
2023-03-19T10:37:40.352Z,32.60
2023-03-19T10:40:50.947Z,34.64
2023-03-19T10:43:59.669Z,34.51
2023-03-19T10:47:14.231Z,33.40
2023-03-19T10:50:20.740Z,33.17
2023-03-19T10:53:34.568Z,32.77
2023-03-19T10:56:47.191Z,32.52
2023-03-19T10:59:51.321Z,32.96
2023-03-19T11:02:59.526Z,31.90
2023-03-19T11:06:09.329Z,32.52
2023-03-19T11:09:24.949Z,31.98
2023-03-19T11:12:35.508Z,32.74
2023-03-19T11:15:40.667Z,32.33
2023-03-19T11:18:50.326Z,31.97
2023-03-19T11:22:04.435Z,32.24
2023-03-19T11:25:19.308Z,31.66
2023-03-19T11:28:26.958Z,31.87
2023-03-19T11:31:39.224Z,31.25
2023-03-19T11:34:52.631Z,31.50
2023-03-19T11:38:01.068Z,31.76
2023-03-19T11:41:14.806Z,31.03
2023-03-19T11:44:24.794Z,31.43
2023-03-19T11:47:38.083Z,31.98
2023-03-19T11:50:51.643Z,32.09
2023-03-19T11:54:06.630Z,32.03
2023-03-19T11:57:14.360Z,31.87
2023-03-19T12:00:30.050Z,31.77
2023-03-19T12:03:59.374Z,32.38
2023-03-19T12:07:16.028Z,32.32
2023-03-19T12:10:43.945Z,31.62
2023-03-19T12:14:03.191Z,31.33
2023-03-19T12:17:24.950Z,31.25
2023-03-19T12:20:46.873Z,31.06
2023-03-19T12:24:05.802Z,31.67
2023-03-19T12:27:23.807Z,31.75
2023-03-19T12:30:36.014Z,32.36
2023-03-19T12:33:48.237Z,32.10
2023-03-19T12:36:59.278Z,31.52
2023-03-19T12:40:24.270Z,31.47
2023-03-19T12:43:33.989Z,31.54
2023-03-19T12:46:43.748Z,31.34
2023-03-19T12:49:53.736Z,31.52
2023-03-19T12:53:02.245Z,31.32
2023-03-19T12:56:14.924Z,31.97
2023-03-19T12:59:34.608Z,31.30
2023-03-19T13:02:44.505Z,31.09
2023-03-19T13:05:54.904Z,30.71
2023-03-19T13:09:06.674Z,30.88
2023-03-19T13:12:19.194Z,30.93
2023-03-19T13:15:30.778Z,30.87
2023-03-19T13:18:42.769Z,31.36
2023-03-19T13:21:50.734Z,31.34
2023-03-19T13:24:57.134Z,31.23
2023-03-19T13:28:02.736Z,31.31
2023-03-19T13:31:09.321Z,31.87
2023-03-19T13:34:23.251Z,31.82
2023-03-19T13:37:28.394Z,32.08
2023-03-19T13:40:44.573Z,32.33
2023-03-19T13:43:56.980Z,31.93
2023-03-19T13:47:03.841Z,32.82
2023-03-19T13:50:28.711Z,32.44
2023-03-19T13:53:39.898Z,33.04
2023-03-19T13:57:08.901Z,33.06
2023-03-19T14:00:45.853Z,33.57
2023-03-19T14:03:58.806Z,33.73
2023-03-19T14:07:14.479Z,34.29
2023-03-19T14:10:25.675Z,33.75
2023-03-19T14:13:34.957Z,33.55
2023-03-19T14:16:44.012Z,33.60
2023-03-19T14:19:51.560Z,33.57
2023-03-19T14:23:04.936Z,33.15
2023-03-19T14:26:14.809Z,33.39
2023-03-19T14:29:20.167Z,33.26
2023-03-19T14:32:36.068Z,33.64
2023-03-19T14:35:47.376Z,33.87
2023-03-19T14:38:54.734Z,34.38
2023-03-19T14:42:07.552Z,34.53
2023-03-19T14:45:41.130Z,34.19
2023-03-19T14:49:11.770Z,34.20
2023-03-19T14:52:22.367Z,34.71
2023-03-19T14:55:36.110Z,34.92
2023-03-19T14:58:50.282Z,34.70
2023-03-19T15:01:55.577Z,35.02
2023-03-19T15:05:01.306Z,34.93
2023-03-19T15:08:13.490Z,35.31
2023-03-19T15:11:55.278Z,34.81
2023-03-19T15:15:21.647Z,34.73
2023-03-19T15:18:27.910Z,34.97
2023-03-19T15:21:32.541Z,34.58
2023-03-19T15:24:38.221Z,35.33
2023-03-19T15:27:43.137Z,35.52
2023-03-19T15:31:03.579Z,35.69
2023-03-19T15:34:23.841Z,36.16
2023-03-19T15:37:32.409Z,35.97
2023-03-19T15:40:39.835Z,36.74
2023-03-19T15:43:45.050Z,36.78
2023-03-19T15:46:50.742Z,37.34
2023-03-19T15:49:59.384Z,37.57
2023-03-19T15:53:09.142Z,37.51
2023-03-19T15:56:17.217Z,37.91
2023-03-19T15:59:24.894Z,37.85
2023-03-19T16:02:32.089Z,38.28
2023-03-19T16:05:36.874Z,38.07
2023-03-19T16:08:49.252Z,38.39
2023-03-19T16:11:56.212Z,38.92
2023-03-19T16:15:00.428Z,39.23
2023-03-19T16:18:26.927Z,39.47
2023-03-19T16:21:36.688Z,39.68
2023-03-19T16:24:43.292Z,40.03
2023-03-19T16:27:49.597Z,40.47
2023-03-19T16:30:53.875Z,40.47
2023-03-19T16:33:58.380Z,40.59
2023-03-19T16:37:03.660Z,40.69
2023-03-19T16:40:47.477Z,41.30
2023-03-19T16:43:55.164Z,41.51
2023-03-19T16:46:59.219Z,41.63
2023-03-19T16:50:03.416Z,41.73
2023-03-19T16:53:16.145Z,42.12
2023-03-19T16:56:20.995Z,42.02
2023-03-19T16:59:31.388Z,42.23
2023-03-19T17:02:35.550Z,42.14
2023-03-19T17:05:39.605Z,42.49
2023-03-19T17:08:44.484Z,42.88
2023-03-19T17:11:48.716Z,42.94
2023-03-19T17:14:54.504Z,43.19
2023-03-19T17:17:59.263Z,43.69
2023-03-19T17:21:07.603Z,44.12
2023-03-19T17:24:24.933Z,44.70
2023-03-19T17:27:29.352Z,44.74
2023-03-19T17:30:35.476Z,44.96
2023-03-19T17:33:39.883Z,45.67
2023-03-19T17:36:53.548Z,45.69
2023-03-19T17:39:57.694Z,45.82
2023-03-19T17:43:01.987Z,46.43
2023-03-19T17:46:07.955Z,46.63
2023-03-19T17:49:20.664Z,46.64
2023-03-19T17:52:24.954Z,46.71
2023-03-19T17:55:30.907Z,47.03
2023-03-19T17:58:35.633Z,47.65
2023-03-19T18:01:43.336Z,47.54
2023-03-19T18:04:47.495Z,47.58
2023-03-19T18:07:54.891Z,47.99
2023-03-19T18:10:59.270Z,48.27
2023-03-19T18:14:03.347Z,48.11
2023-03-19T18:17:09.678Z,48.23
2023-03-19T18:20:16.012Z,48.40
2023-03-19T18:23:20.504Z,48.54
2023-03-19T18:26:24.859Z,48.67
2023-03-19T18:29:28.930Z,49.02
2023-03-19T18:32:34.914Z,49.06
2023-03-19T18:35:41.882Z,49.17
2023-03-19T18:38:46.130Z,49.75
2023-03-19T18:41:50.297Z,49.70
2023-03-19T18:44:54.403Z,50.20
2023-03-19T18:48:00.771Z,50.34
2023-03-19T18:51:05.362Z,50.85
2023-03-19T18:54:11.579Z,51.09
2023-03-19T18:57:16.351Z,51.48
2023-03-19T19:00:22.841Z,51.75
2023-03-19T19:03:29.910Z,51.61
2023-03-19T19:06:46.906Z,52.10
2023-03-19T19:09:52.119Z,52.43
2023-03-19T19:12:57.227Z,51.95
2023-03-19T19:16:01.999Z,51.97
2023-03-19T19:19:16.788Z,51.89
2023-03-19T19:22:21.525Z,51.75
2023-03-19T19:25:27.553Z,52.25
2023-03-19T19:28:34.242Z,52.32
2023-03-19T19:31:38.501Z,53.71
2023-03-19T19:34:44.173Z,53.44
2023-03-19T19:37:48.284Z,54.96
2023-03-19T19:40:55.441Z,55.11
2023-03-19T19:44:03.487Z,56.34
2023-03-19T19:47:15.437Z,56.50
2023-03-19T19:50:22.518Z,56.10
2023-03-19T19:53:29.122Z,57.06
2023-03-19T19:56:33.278Z,57.40
2023-03-19T19:59:39.575Z,57.48
2023-03-19T20:02:43.670Z,58.31
2023-03-19T20:05:49.573Z,58.30
2023-03-19T20:08:53.602Z,59.52
2023-03-19T20:11:57.822Z,59.99
2023-03-19T20:15:02.074Z,60.72
2023-03-19T20:18:07.102Z,60.59
2023-03-19T20:21:13.004Z,60.12
2023-03-19T20:24:17.246Z,60.46
2023-03-19T20:27:24.668Z,60.63
2023-03-19T20:30:31.089Z,61.38
2023-03-19T20:33:35.456Z,60.24
2023-03-19T20:36:41.128Z,60.88
2023-03-19T20:39:45.764Z,61.41
2023-03-19T20:42:52.255Z,61.55
2023-03-19T20:45:56.982Z,61.23
2023-03-19T20:49:02.348Z,61.95
2023-03-19T20:52:07.897Z,62.96
2023-03-19T20:55:17.315Z,60.56
2023-03-19T20:58:27.870Z,60.33
2023-03-19T21:01:32.624Z,59.57
2023-03-19T21:04:36.818Z,59.98
2023-03-19T21:07:42.849Z,59.68
2023-03-19T21:10:48.674Z,59.00
2023-03-19T21:13:54.369Z,59.16
2023-03-19T21:16:59.264Z,59.04
2023-03-19T21:20:03.611Z,60.91
2023-03-19T21:23:17.548Z,61.00
2023-03-19T21:26:22.854Z,61.84
2023-03-19T21:29:33.600Z,61.65
2023-03-19T21:32:37.707Z,61.46
2023-03-19T21:35:41.851Z,62.19
2023-03-19T21:38:47.924Z,62.07
2023-03-19T21:41:52.275Z,61.34
2023-03-19T21:45:01.223Z,61.11
2023-03-19T21:48:25.168Z,61.50
2023-03-19T21:51:30.224Z,59.91
2023-03-19T21:54:35.839Z,60.45
2023-03-19T21:57:39.923Z,61.20
2023-03-19T22:00:44.749Z,61.25
2023-03-19T22:03:48.922Z,62.02
2023-03-19T22:06:53.295Z,62.70
2023-03-19T22:09:58.829Z,61.05
2023-03-19T22:13:03.154Z,61.55
2023-03-19T22:16:08.119Z,62.43
2023-03-19T22:19:15.657Z,62.03
2023-03-19T22:22:19.773Z,62.02
2023-03-19T22:25:30.359Z,62.27
2023-03-19T22:28:36.386Z,61.52
2023-03-19T22:31:40.553Z,62.84
2023-03-19T22:34:45.269Z,63.25
2023-03-19T22:37:49.676Z,62.33
2023-03-19T22:40:57.504Z,61.24
2023-03-19T22:44:03.799Z,61.17
2023-03-19T22:47:08.055Z,61.24
2023-03-19T22:50:19.036Z,60.98
2023-03-19T22:53:25.241Z,62.80
2023-03-19T22:56:30.765Z,63.99
2023-03-19T22:59:34.882Z,64.89
2023-03-19T23:02:39.020Z,66.94
2023-03-19T23:05:47.475Z,66.91
2023-03-19T23:08:51.608Z,67.16
2023-03-19T23:11:58.257Z,66.32
2023-03-19T23:15:02.336Z,66.38
2023-03-19T23:18:15.220Z,65.77
2023-03-19T23:21:20.470Z,65.73
2023-03-19T23:24:24.559Z,65.13
2023-03-19T23:27:29.908Z,64.86
2023-03-19T23:30:34.872Z,64.57
2023-03-19T23:33:38.915Z,64.10
2023-03-19T23:36:43.896Z,63.32
2023-03-19T23:39:48.006Z,63.60
2023-03-19T23:42:57.109Z,64.42
2023-03-19T23:46:01.405Z,65.02
2023-03-19T23:49:05.364Z,64.98
2023-03-19T23:52:15.016Z,65.49
2023-03-19T23:55:19.916Z,67.13
2023-03-19T23:58:30.951Z,66.93
